Irvington, New Jersey
Current Conditions -  °F | °C
As of 3:51 AM on Thursday 27 Nov 2014 (Local Time) from KEWR Reporting Station
Overcast Overcast  
Wind Chill: 31°   Ceiling: 6500
Heat Index: 36°   Visibility: 10mi
Dew Point: 33°   Wind: 6mph
Humidity: 89%   Direction: 260°W
Pressure: 29.93"   Gusts: NA
Location:  40.73°N, 74.23°W
Report Text: KEWR 270851Z 26005KT 10SM BKN065 OVC080 02/01 A2993 RMK AO2 SLP134 T00220006 51023 $
Loading
Personal Weather Stations






























Interactive Weather Map New forecast layout! Learn more

10-Day Weather Forecast

Advertisements
Track Severe Weather on mobile